createdAt,value
2023-03-16T00:00:27.148Z,0.63
2023-03-16T00:02:57.463Z,0.67
2023-03-16T00:05:26.702Z,0.64
2023-03-16T00:07:55.340Z,0.53
2023-03-16T00:10:27.663Z,0.53
2023-03-16T00:12:56.801Z,0.48
2023-03-16T00:15:25.518Z,0.49
2023-03-16T00:17:55.309Z,0.61
2023-03-16T00:20:25.741Z,0.49
2023-03-16T00:22:54.690Z,0.54
2023-03-16T00:25:24.395Z,0.58
2023-03-16T00:27:53.229Z,0.42
2023-03-16T00:30:22.968Z,0.34
2023-03-16T00:32:53.969Z,0.52
2023-03-16T00:35:24.096Z,0.52
2023-03-16T00:37:52.866Z,0.35
2023-03-16T00:40:22.059Z,0.46
2023-03-16T00:42:50.680Z,0.23
2023-03-16T00:45:19.476Z,0.18
2023-03-16T00:47:48.236Z,0.36
2023-03-16T00:50:17.274Z,0.30
2023-03-16T00:52:47.465Z,0.31
2023-03-16T00:55:16.232Z,0.39
2023-03-16T00:57:45.001Z,0.50
2023-03-16T01:00:17.036Z,0.48
2023-03-16T01:02:46.587Z,0.24
2023-03-16T01:05:16.475Z,0.34
2023-03-16T01:07:48.325Z,0.22
2023-03-16T01:10:18.125Z,0.13
2023-03-16T01:12:47.558Z,0.21
2023-03-16T01:15:16.415Z,0.25
2023-03-16T01:17:45.193Z,0.24
2023-03-16T01:20:19.369Z,0.29
2023-03-16T01:22:49.526Z,0.33
2023-03-16T01:25:18.610Z,0.33
2023-03-16T01:27:47.742Z,0.26
2023-03-16T01:30:16.913Z,0.35
2023-03-16T01:32:45.950Z,0.17
2023-03-16T01:35:15.848Z,0.19
2023-03-16T01:37:44.843Z,0.19
2023-03-16T01:40:18.570Z,0.30
2023-03-16T01:42:49.491Z,0.21
2023-03-16T01:46:18.328Z,0.32
2023-03-16T01:49:05.649Z,0.15
2023-03-16T01:51:43.848Z,0.19
2023-03-16T01:54:24.969Z,0.24
2023-03-16T01:57:04.727Z,0.18
2023-03-16T01:59:39.520Z,0.23
2023-03-16T02:02:11.164Z,0.17
2023-03-16T02:04:53.501Z,0.19
2023-03-16T02:07:29.712Z,0.18
2023-03-16T02:10:02.667Z,0.25
2023-03-16T02:12:33.311Z,0.25
2023-03-16T02:15:06.102Z,0.25
2023-03-16T02:17:37.899Z,0.21
2023-03-16T02:20:30.018Z,0.23
2023-03-16T02:23:00.720Z,0.20
2023-03-16T02:25:41.718Z,0.08
2023-03-16T02:28:23.342Z,0.11
2023-03-16T02:30:54.708Z,0.19
2023-03-16T02:33:25.447Z,0.23
2023-03-16T02:35:54.464Z,0.25
2023-03-16T02:38:23.825Z,0.26
2023-03-16T02:41:02.725Z,-0.02
2023-03-16T02:43:37.480Z,0.15
2023-03-16T02:46:17.201Z,0.14
2023-03-16T02:48:55.754Z,-0.05
2023-03-16T02:51:24.662Z,0.03
2023-03-16T02:53:53.459Z,0.05
2023-03-16T02:56:23.683Z,-0.02
2023-03-16T02:58:52.570Z,0.02
2023-03-16T03:01:24.093Z,0.09
2023-03-16T03:03:52.842Z,0.07
2023-03-16T03:06:21.708Z,0.08
2023-03-16T03:08:50.497Z,-0.16
2023-03-16T03:11:19.823Z,-0.12
2023-03-16T03:13:49.047Z,-0.18
2023-03-16T03:16:23.865Z,-0.07
2023-03-16T03:18:54.340Z,-0.01
2023-03-16T03:21:24.931Z,0.02
2023-03-16T03:23:54.095Z,-0.04
2023-03-16T03:26:23.096Z,-0.05
2023-03-16T03:28:52.658Z,-0.16
2023-03-16T03:31:24.325Z,-0.07
2023-03-16T03:33:54.055Z,-0.09
2023-03-16T03:36:24.151Z,-0.37
2023-03-16T03:38:54.836Z,-0.22
2023-03-16T03:41:24.218Z,-0.18
2023-03-16T03:43:54.941Z,-0.44
2023-03-16T03:46:26.006Z,-0.41
2023-03-16T03:48:54.880Z,-0.29
2023-03-16T03:51:24.110Z,-0.20
2023-03-16T03:54:06.075Z,-0.16
2023-03-16T03:56:48.711Z,-0.22
2023-03-16T03:59:18.712Z,-0.42
2023-03-16T04:02:18.432Z,-0.38
2023-03-16T04:04:52.707Z,-0.35
2023-03-16T04:07:21.644Z,-0.34
2023-03-16T04:09:53.121Z,-0.29
2023-03-16T04:12:30.811Z,-0.35
2023-03-16T04:14:59.957Z,-0.33
2023-03-16T04:17:36.266Z,-0.49
2023-03-16T04:20:16.142Z,-0.60
2023-03-16T04:22:48.476Z,-0.51
2023-03-16T04:25:19.501Z,-0.66
2023-03-16T04:27:50.026Z,-0.54
2023-03-16T04:30:20.117Z,-0.47
2023-03-16T04:32:56.417Z,-0.65
2023-03-16T04:35:25.818Z,-0.56
2023-03-16T04:37:58.233Z,-0.83
2023-03-16T04:40:35.702Z,-0.84
2023-03-16T04:43:11.243Z,-0.85
2023-03-16T04:45:40.155Z,-0.95
2023-03-16T04:48:10.749Z,-0.80
2023-03-16T04:50:41.029Z,-0.69
2023-03-16T04:53:10.219Z,-0.74
2023-03-16T04:55:39.116Z,-0.82
2023-03-16T04:58:09.136Z,-0.95
2023-03-16T05:00:40.960Z,-0.76
2023-03-16T05:03:21.762Z,-0.87
2023-03-16T05:05:52.154Z,-0.82
2023-03-16T05:08:21.301Z,-0.73
2023-03-16T05:10:52.206Z,-0.77
2023-03-16T05:13:21.756Z,-0.89
2023-03-16T05:15:54.105Z,-0.86
2023-03-16T05:18:36.309Z,-0.77
2023-03-16T05:21:06.408Z,-0.68
2023-03-16T05:23:48.884Z,-0.72
2023-03-16T05:26:18.456Z,-0.94
2023-03-16T05:28:47.914Z,-0.99
2023-03-16T05:31:19.937Z,-1.03
2023-03-16T05:34:00.213Z,-0.94
2023-03-16T05:36:29.023Z,-1.04
2023-03-16T05:39:03.818Z,-0.91
2023-03-16T05:41:38.325Z,-0.95
2023-03-16T05:44:22.943Z,-1.03
2023-03-16T05:47:06.774Z,-0.80
2023-03-16T05:49:41.398Z,-0.83
2023-03-16T05:52:17.030Z,-0.83
2023-03-16T05:54:46.703Z,-0.71
2023-03-16T05:57:16.442Z,-0.77
2023-03-16T05:59:49.002Z,-0.76
2023-03-16T06:02:19.973Z,-0.62
2023-03-16T06:04:53.741Z,-0.62
2023-03-16T06:07:22.799Z,-0.68
2023-03-16T06:09:55.238Z,-0.65
2023-03-16T06:12:24.344Z,-0.60
2023-03-16T06:14:53.199Z,-0.62
2023-03-16T06:17:22.011Z,-0.44
2023-03-16T06:19:52.572Z,-0.33
2023-03-16T06:22:21.516Z,-0.35
2023-03-16T06:24:50.416Z,-0.52
2023-03-16T06:27:20.379Z,-0.50
2023-03-16T06:30:08.705Z,-0.27
2023-03-16T06:32:39.170Z,-0.21
2023-03-16T06:35:14.637Z,-0.09
2023-03-16T06:37:49.944Z,-0.08
2023-03-16T06:40:37.472Z,0.02
2023-03-16T06:43:07.752Z,0.00
2023-03-16T06:45:36.602Z,-0.05
2023-03-16T06:48:07.044Z,0.05
2023-03-16T06:50:37.293Z,0.16
2023-03-16T06:53:07.571Z,0.18
2023-03-16T06:55:38.283Z,0.30
2023-03-16T06:58:07.063Z,0.39
2023-03-16T07:00:35.802Z,0.45
2023-03-16T07:03:05.267Z,0.52
2023-03-16T07:05:36.489Z,0.57
2023-03-16T07:08:06.143Z,0.63
2023-03-16T07:10:35.404Z,0.72
2023-03-16T07:13:04.202Z,0.78
2023-03-16T07:15:32.931Z,0.84
2023-03-16T07:18:02.712Z,0.87
2023-03-16T07:20:33.152Z,0.98
2023-03-16T07:23:07.324Z,1.07
2023-03-16T07:25:37.377Z,1.14
2023-03-16T07:28:06.865Z,1.24
2023-03-16T07:30:45.930Z,1.35
2023-03-16T07:33:22.618Z,1.42
2023-03-16T07:35:52.076Z,1.52
2023-03-16T07:38:22.362Z,1.58
2023-03-16T07:40:53.280Z,1.64
2023-03-16T07:43:24.661Z,1.72
2023-03-16T07:45:57.237Z,1.79
2023-03-16T07:48:27.272Z,1.83
2023-03-16T07:51:01.854Z,1.86
2023-03-16T07:53:33.517Z,1.94
2023-03-16T07:56:15.888Z,1.99
2023-03-16T07:58:47.693Z,2.06
2023-03-16T08:01:17.185Z,2.13
2023-03-16T08:03:45.973Z,2.21
2023-03-16T08:06:14.696Z,2.28
2023-03-16T08:08:44.856Z,2.39
2023-03-16T08:11:23.899Z,2.50
2023-03-16T08:14:05.548Z,2.61
2023-03-16T08:17:08.565Z,2.64
2023-03-16T08:19:37.967Z,2.73
2023-03-16T08:22:09.374Z,2.84
2023-03-16T08:24:43.976Z,2.90
2023-03-16T08:27:16.196Z,3.03
2023-03-16T08:29:53.370Z,3.16
2023-03-16T08:32:24.947Z,3.28
2023-03-16T08:34:53.869Z,3.39
2023-03-16T08:37:24.180Z,3.52
2023-03-16T08:39:56.997Z,3.64
2023-03-16T08:42:25.921Z,3.73
2023-03-16T08:45:00.962Z,3.86
2023-03-16T08:47:32.893Z,4.01
2023-03-16T08:50:02.329Z,4.13
2023-03-16T08:52:31.823Z,4.31
2023-03-16T08:55:04.093Z,4.51
2023-03-16T08:57:33.911Z,4.70
2023-03-16T09:00:08.931Z,4.83
2023-03-16T09:02:38.804Z,5.04
2023-03-16T09:05:10.219Z,5.35
2023-03-16T09:07:40.121Z,5.56
2023-03-16T09:10:15.446Z,5.79
2023-03-16T09:12:45.028Z,6.04
2023-03-16T09:15:14.966Z,6.29
2023-03-16T09:17:45.274Z,6.45
2023-03-16T09:20:22.784Z,6.76
2023-03-16T09:22:56.077Z,6.96
2023-03-16T09:25:26.693Z,7.15
2023-03-16T09:27:55.785Z,7.29
2023-03-16T09:30:24.736Z,7.43
2023-03-16T09:32:53.467Z,7.52
2023-03-16T09:35:22.310Z,7.59
2023-03-16T09:38:05.605Z,7.73
2023-03-16T09:40:39.664Z,7.82
2023-03-16T09:43:49.433Z,8.02
2023-03-16T09:46:28.513Z,8.27
2023-03-16T09:48:59.304Z,8.37
2023-03-16T09:51:40.507Z,8.63
2023-03-16T09:54:24.449Z,8.70
2023-03-16T09:57:19.360Z,8.91
2023-03-16T10:00:49.177Z,8.83
2023-03-16T10:04:31.199Z,8.91
2023-03-16T10:07:20.138Z,8.94
2023-03-16T10:09:58.698Z,9.07
2023-03-16T10:12:41.525Z,9.13
2023-03-16T10:15:15.453Z,9.27
2023-03-16T10:17:51.649Z,9.40
2023-03-16T10:20:23.889Z,9.55
2023-03-16T10:22:55.739Z,9.42
2023-03-16T10:25:32.304Z,9.46
2023-03-16T10:28:02.404Z,9.47
2023-03-16T10:30:36.248Z,9.38
2023-03-16T10:33:19.768Z,9.52
2023-03-16T10:35:52.786Z,9.43
2023-03-16T10:38:33.025Z,9.15
2023-03-16T10:41:02.203Z,8.72
2023-03-16T10:43:32.308Z,8.55
2023-03-16T10:46:03.581Z,8.49
2023-03-16T10:48:34.985Z,8.55
2023-03-16T10:51:10.244Z,8.60
2023-03-16T10:53:44.689Z,8.72
2023-03-16T10:56:20.979Z,8.83
2023-03-16T10:58:51.686Z,9.06
2023-03-16T11:01:26.906Z,9.37
2023-03-16T11:03:58.289Z,10.02
2023-03-16T11:06:31.518Z,10.52
2023-03-16T11:09:08.839Z,10.74
2023-03-16T11:11:38.481Z,11.54
2023-03-16T11:14:15.438Z,11.97
2023-03-16T11:16:50.990Z,12.29
2023-03-16T11:19:24.876Z,12.50
2023-03-16T11:21:59.952Z,12.93
2023-03-16T11:24:42.350Z,13.12
2023-03-16T11:27:23.249Z,13.61
2023-03-16T11:30:16.795Z,13.92
2023-03-16T11:32:53.317Z,13.76
2023-03-16T11:35:31.013Z,14.25
2023-03-16T11:38:15.416Z,13.87
2023-03-16T11:40:58.609Z,13.63
2023-03-16T11:43:54.086Z,13.58
2023-03-16T11:46:27.487Z,13.68
2023-03-16T11:49:27.246Z,13.41
2023-03-16T11:52:06.548Z,12.95
2023-03-16T11:54:55.083Z,12.54
2023-03-16T11:57:43.778Z,11.89
2023-03-16T12:00:29.047Z,11.76
2023-03-16T12:03:28.848Z,12.42
2023-03-16T12:06:17.113Z,12.79
2023-03-16T12:09:39.440Z,12.77
2023-03-16T12:12:29.536Z,12.61
2023-03-16T12:15:21.433Z,12.66
2023-03-16T12:17:55.156Z,12.19
2023-03-16T12:20:31.724Z,12.17
2023-03-16T12:23:07.883Z,12.02
2023-03-16T12:25:42.920Z,12.21
2023-03-16T12:28:23.760Z,12.49
2023-03-16T12:31:09.408Z,13.22
2023-03-16T12:33:55.295Z,13.82
2023-03-16T12:37:15.461Z,13.63
2023-03-16T12:40:24.650Z,13.29
2023-03-16T12:43:10.803Z,12.82
2023-03-16T12:45:49.400Z,12.47
2023-03-16T12:48:29.964Z,12.07
2023-03-16T12:51:03.229Z,11.54
2023-03-16T12:53:46.044Z,11.05
2023-03-16T12:56:18.858Z,10.86
2023-03-16T12:58:50.818Z,10.63
2023-03-16T13:01:28.312Z,10.34
2023-03-16T13:04:07.448Z,10.02
2023-03-16T13:06:38.724Z,9.79
2023-03-16T13:09:09.754Z,9.77
2023-03-16T13:11:50.449Z,9.73
2023-03-16T13:14:38.346Z,9.84
2023-03-16T13:17:25.520Z,9.88
2023-03-16T13:20:06.759Z,9.78
2023-03-16T13:22:47.123Z,9.57
2023-03-16T13:25:25.667Z,9.44
2023-03-16T13:27:58.309Z,9.46
2023-03-16T13:30:32.812Z,9.55
2023-03-16T13:33:11.332Z,9.47
2023-03-16T13:35:41.164Z,9.46
2023-03-16T13:38:16.949Z,9.35
2023-03-16T13:40:54.514Z,9.40
2023-03-16T13:43:27.982Z,9.32
2023-03-16T13:45:57.676Z,9.35
2023-03-16T13:48:26.760Z,9.16
2023-03-16T13:50:58.782Z,9.15
2023-03-16T13:53:32.940Z,9.10
2023-03-16T13:56:04.442Z,9.23
2023-03-16T13:58:39.771Z,9.43
2023-03-16T14:01:26.100Z,9.62
2023-03-16T14:03:59.581Z,9.70
2023-03-16T14:06:34.293Z,9.67
2023-03-16T14:09:08.143Z,9.66
2023-03-16T14:11:38.714Z,9.56
2023-03-16T14:14:17.768Z,9.53
2023-03-16T14:16:46.605Z,9.43
2023-03-16T14:19:24.641Z,9.38
2023-03-16T14:21:53.542Z,9.41
2023-03-16T14:24:34.956Z,9.35
2023-03-16T14:27:21.937Z,9.30
2023-03-16T14:30:04.521Z,9.34
2023-03-16T14:32:35.133Z,9.21
2023-03-16T14:35:23.447Z,9.13
2023-03-16T14:37:52.913Z,9.06
2023-03-16T14:40:31.917Z,9.04
2023-03-16T14:43:06.448Z,8.85
2023-03-16T14:45:38.034Z,8.93
2023-03-16T14:48:18.270Z,8.92
2023-03-16T14:50:49.192Z,8.96
2023-03-16T14:53:18.224Z,8.93
2023-03-16T14:55:47.595Z,9.00
2023-03-16T14:58:18.552Z,9.06
2023-03-16T15:00:53.076Z,9.03
2023-03-16T15:03:30.373Z,8.98
2023-03-16T15:06:00.386Z,9.05
2023-03-16T15:08:34.532Z,8.91
2023-03-16T15:11:08.136Z,8.90
2023-03-16T15:13:59.586Z,8.83
2023-03-16T15:16:30.919Z,8.75
2023-03-16T15:19:03.296Z,8.68
2023-03-16T15:22:25.282Z,8.52
2023-03-16T15:24:58.229Z,8.43
2023-03-16T15:27:35.046Z,8.36
2023-03-16T15:30:31.337Z,8.35
2023-03-16T15:33:07.496Z,8.27
2023-03-16T15:35:37.793Z,8.16
2023-03-16T15:38:15.195Z,8.12
2023-03-16T15:40:47.961Z,8.10
2023-03-16T15:43:20.730Z,8.00
2023-03-16T15:45:52.376Z,7.99
2023-03-16T15:48:24.767Z,8.03
2023-03-16T15:50:57.412Z,7.99
2023-03-16T15:53:31.877Z,7.90
2023-03-16T15:56:05.731Z,7.91
2023-03-16T15:58:38.136Z,7.92
2023-03-16T16:01:09.026Z,7.89
2023-03-16T16:03:39.176Z,7.78
2023-03-16T16:06:12.336Z,7.80
2023-03-16T16:11:34.908Z,7.73
2023-03-16T16:14:11.731Z,7.62
2023-03-16T16:16:48.401Z,7.49
2023-03-16T16:19:19.845Z,7.47
2023-03-16T16:21:53.739Z,7.47
2023-03-16T16:24:25.395Z,7.42
2023-03-16T16:26:57.983Z,7.34
2023-03-16T16:29:35.588Z,7.34
2023-03-16T16:32:25.157Z,7.13
2023-03-16T16:35:04.274Z,7.12
2023-03-16T16:37:38.601Z,7.11
2023-03-16T16:40:21.342Z,6.94
2023-03-16T16:42:55.202Z,6.97
2023-03-16T16:45:32.742Z,6.96
2023-03-16T16:48:08.190Z,6.84
2023-03-16T16:50:39.857Z,6.79
2023-03-16T16:53:31.908Z,6.76
2023-03-16T16:56:03.035Z,6.75
2023-03-16T16:58:35.626Z,6.62
2023-03-16T17:01:12.807Z,6.60
2023-03-16T17:03:53.146Z,6.44
2023-03-16T17:06:36.839Z,6.47
2023-03-16T17:09:10.831Z,6.43
2023-03-16T17:11:45.430Z,6.35
2023-03-16T17:14:21.987Z,6.14
2023-03-16T17:17:17.988Z,6.10
2023-03-16T17:19:48.692Z,6.08
2023-03-16T17:22:25.489Z,6.07
2023-03-16T17:24:55.179Z,6.11
2023-03-16T17:27:33.140Z,6.02
2023-03-16T17:30:04.583Z,6.05
2023-03-16T17:32:52.215Z,5.94
2023-03-16T17:35:22.750Z,5.94
2023-03-16T17:37:51.745Z,5.87
2023-03-16T17:40:23.745Z,5.87
2023-03-16T17:42:55.432Z,5.88
2023-03-16T17:45:28.768Z,5.85
2023-03-16T17:48:00.685Z,5.83
2023-03-16T17:50:31.484Z,5.78
2023-03-16T17:53:03.179Z,5.68
2023-03-16T17:55:32.355Z,5.68
2023-03-16T17:58:02.301Z,5.68
2023-03-16T18:00:34.309Z,5.60
2023-03-16T18:03:05.799Z,5.44
2023-03-16T18:05:38.408Z,5.22
2023-03-16T18:08:17.118Z,5.39
2023-03-16T18:10:49.568Z,5.49
2023-03-16T18:13:24.169Z,5.52
2023-03-16T18:15:53.908Z,5.52
2023-03-16T18:18:26.368Z,5.52
2023-03-16T18:21:01.876Z,5.37
2023-03-16T18:23:33.600Z,5.34
2023-03-16T18:26:04.424Z,5.40
2023-03-16T18:28:34.454Z,5.38
2023-03-16T18:31:06.026Z,5.28
2023-03-16T18:33:39.431Z,5.34
2023-03-16T18:36:18.230Z,5.38
2023-03-16T18:38:50.653Z,5.42
2023-03-16T18:41:22.914Z,5.39
2023-03-16T18:43:53.491Z,5.43
2023-03-16T18:46:29.062Z,5.46
2023-03-16T18:49:06.337Z,5.48
2023-03-16T18:51:41.501Z,5.44
2023-03-16T18:54:24.471Z,5.49
2023-03-16T18:56:54.133Z,5.52
2023-03-16T18:59:23.386Z,5.50
2023-03-16T19:01:53.134Z,5.44
2023-03-16T19:04:26.003Z,5.45
2023-03-16T19:06:58.500Z,5.38
2023-03-16T19:09:30.476Z,5.31
2023-03-16T19:12:00.350Z,5.21
2023-03-16T19:14:34.839Z,5.37
2023-03-16T19:17:03.729Z,5.39
2023-03-16T19:19:32.478Z,5.39
2023-03-16T19:22:09.930Z,5.28
2023-03-16T19:24:49.974Z,5.35
2023-03-16T19:27:28.120Z,5.41
2023-03-16T19:30:02.577Z,5.42
2023-03-16T19:32:41.784Z,5.40
2023-03-16T19:35:17.363Z,5.32
2023-03-16T19:38:55.338Z,5.31
2023-03-16T19:41:30.970Z,5.27
2023-03-16T19:44:10.114Z,5.23
2023-03-16T19:51:14.686Z,5.01
2023-03-16T19:53:45.774Z,4.98
2023-03-16T19:56:17.100Z,4.99
2023-03-16T19:58:53.890Z,4.98
2023-03-16T20:01:26.701Z,4.87
2023-03-16T20:03:55.478Z,4.80
2023-03-16T20:06:25.658Z,4.83
2023-03-16T20:08:55.961Z,4.84
2023-03-16T20:11:31.551Z,4.89
2023-03-16T20:14:03.598Z,4.89
2023-03-16T20:16:36.044Z,4.85
2023-03-16T20:19:14.081Z,4.89
2023-03-16T20:21:43.400Z,4.86
2023-03-16T20:24:19.945Z,4.88
2023-03-16T20:26:51.649Z,4.88
2023-03-16T20:29:29.796Z,4.88
2023-03-16T20:31:59.112Z,4.88
2023-03-16T20:34:32.247Z,4.86
2023-03-16T20:37:01.978Z,4.69
2023-03-16T20:39:32.485Z,4.66
2023-03-16T20:42:01.474Z,4.68
2023-03-16T20:44:32.327Z,4.63
2023-03-16T20:47:02.551Z,4.66
2023-03-16T20:49:34.164Z,4.65
2023-03-16T20:52:04.010Z,4.48
2023-03-16T20:54:34.553Z,4.44
2023-03-16T20:57:03.705Z,4.35
2023-03-16T20:59:33.159Z,4.42
2023-03-16T21:02:03.278Z,4.38
2023-03-16T21:04:31.975Z,4.45
2023-03-16T21:07:00.616Z,4.46
2023-03-16T21:09:31.927Z,4.41
2023-03-16T21:12:02.144Z,4.40
2023-03-16T21:14:31.599Z,4.37
2023-03-16T21:17:00.665Z,4.20
2023-03-16T21:19:30.114Z,4.20
2023-03-16T21:21:58.738Z,4.10
2023-03-16T21:24:27.362Z,4.08
2023-03-16T21:26:56.062Z,4.06
2023-03-16T21:29:26.392Z,3.93
2023-03-16T21:31:55.435Z,3.83
2023-03-16T21:34:30.474Z,3.91
2023-03-16T21:36:59.428Z,3.86
2023-03-16T21:39:31.263Z,3.77
2023-03-16T21:41:59.957Z,3.85
2023-03-16T21:44:30.036Z,3.85
2023-03-16T21:46:58.827Z,3.79
2023-03-16T21:49:27.590Z,3.87
2023-03-16T21:51:56.776Z,3.85
2023-03-16T21:54:25.518Z,3.79
2023-03-16T21:56:54.221Z,3.67
2023-03-16T21:59:23.907Z,3.68
2023-03-16T22:02:06.908Z,3.62
2023-03-16T22:04:35.693Z,3.58
2023-03-16T22:07:04.354Z,3.56
2023-03-16T22:09:33.278Z,3.54
2023-03-16T22:12:01.908Z,3.60
2023-03-16T22:14:30.525Z,3.52
2023-03-16T22:17:00.681Z,3.40
2023-03-16T22:19:29.674Z,3.35
2023-03-16T22:21:58.798Z,3.38
2023-03-16T22:24:31.407Z,3.40
2023-03-16T22:27:01.000Z,3.49
2023-03-16T22:29:31.773Z,3.53
2023-03-16T22:32:08.612Z,3.58
2023-03-16T22:34:45.249Z,3.52
2023-03-16T22:37:19.553Z,3.54
2023-03-16T22:39:49.669Z,3.42
2023-03-16T22:42:29.231Z,3.49
2023-03-16T22:44:58.307Z,3.49
2023-03-16T22:47:32.362Z,3.54
2023-03-16T22:50:02.003Z,3.50
2023-03-16T22:52:36.239Z,3.58
2023-03-16T22:55:08.832Z,3.59
2023-03-16T22:57:37.521Z,3.63
2023-03-16T23:00:11.268Z,3.54
2023-03-16T23:02:42.823Z,3.61
2023-03-16T23:05:24.414Z,3.50
2023-03-16T23:07:54.412Z,3.54
2023-03-16T23:10:28.413Z,3.60
2023-03-16T23:13:00.699Z,3.56
2023-03-16T23:15:31.979Z,3.58
2023-03-16T23:18:02.318Z,3.56
2023-03-16T23:20:33.608Z,3.60
2023-03-16T23:23:02.348Z,3.70
2023-03-16T23:25:31.262Z,3.75
2023-03-16T23:28:02.803Z,3.71
2023-03-16T23:30:32.256Z,3.75
2023-03-16T23:33:02.845Z,3.72
2023-03-16T23:35:33.116Z,3.79
2023-03-16T23:38:02.207Z,3.79
2023-03-16T23:40:32.036Z,3.79
2023-03-16T23:43:02.235Z,3.70
2023-03-16T23:45:38.749Z,3.64
2023-03-16T23:48:16.896Z,3.69
2023-03-16T23:50:48.870Z,3.67
2023-03-16T23:53:19.968Z,3.68
2023-03-16T23:55:49.548Z,3.69
2023-03-16T23:58:18.590Z,3.70
